Startseite

Hier einige der aktuellen Wetterdaten aus Weinheim, 5 minütlich aus meiner Wetterstation vom Balkon 😉

Wetter in Weinheim / Weinheim Weather …

Daten vom:23.01.2022 22:40

Temp: 4.2 ° C

Feuchte:83 %

Regen heute:0mm

Regen Woche: 0 mm

Regen Monat: 68.1 mm

Regen Jahr : 68.1 mm

Sun 23.01.2022, Sonnenaufgang : 08:12

Sun 23.01.2022, Sonnenuntergang : 17:01

Es ist dunkel!

Alderle, so isses net wirklich hell!

Minimaltemperatur der letzten 24 Stunden: 3.7 ° C am 23.01.2022 09:15

Maximaltemperatur der letzten 24 Stunden 6.1 ° C am 23.01.2022 13:45

Letzter registrierter Niederschlag :-21.01.2022 22:30

Datum TemperaturFeuchte Regenrate TagesNs. WindBoe
23.01.2022 22:404.2 C 83 %0000
23.01.2022 21:404.8 C 82 %0000
23.01.2022 20:400 C %0000
23.01.2022 19:405.4 C 78 %0000
23.01.2022 18:405.3 C 83 %0000
23.01.2022 17:405.4 C 85 %0000
23.01.2022 16:405.9 C 82 %0000
23.01.2022 15:456 C 91 %0000
23.01.2022 14:405.9 C 91 %0000
23.01.2022 13:405.8 C 91 %0000
23.01.2022 12:405.3 C 93 %0000
23.01.2022 11:404.8 C 95 %0000
23.01.2022 10:404.5 C 96 %0000
23.01.2022 09:404 C 97 %0000
23.01.2022 08:403.8 C 97 %0000
23.01.2022 07:403.8 C 96 %0000
23.01.2022 06:403.8 C 96 %0000
23.01.2022 05:403.8 C 96 %0000
23.01.2022 04:403.9 C 95 %0000
23.01.2022 03:404.1 C 94 %0000
23.01.2022 02:404.2 C 94 %0000
23.01.2022 01:404.2 C 94 %0000
23.01.2022 00:404.3 C 94 %0000
22.01.2022 23:404.3 C 94 %0000
22.01.2022 22:404.5 C 94 %000.30.5

Der Server holt alle 5 Minuten Daten von der Wetterstation ab.

https://childthemewp.com